createdAt,value
2018-05-07T00:00:12.791Z,99.99
2018-05-07T00:10:12.519Z,99.99
2018-05-07T00:20:12.203Z,99.99
2018-05-07T00:30:13.612Z,99.99
2018-05-07T00:40:12.728Z,99.99
2018-05-07T00:50:12.724Z,99.99
2018-05-07T01:00:12.318Z,99.99
2018-05-07T01:10:11.965Z,99.99
2018-05-07T01:20:32.168Z,99.99
2018-05-07T01:30:32.458Z,99.99
2018-05-07T01:40:32.365Z,99.99
2018-05-07T01:50:12.204Z,99.99
2018-05-07T02:00:16.153Z,99.99
2018-05-07T02:10:12.234Z,99.99
2018-05-07T02:20:32.326Z,99.99
2018-05-07T02:30:34.439Z,99.99
2018-05-07T02:40:11.964Z,99.99
2018-05-07T02:50:35.452Z,99.99
2018-05-07T03:00:12.702Z,99.99
2018-05-07T03:10:12.573Z,99.99
2018-05-07T03:20:13.351Z,99.99
2018-05-07T03:30:13.738Z,99.99
2018-05-07T03:40:13.665Z,99.99
2018-05-07T03:50:34.500Z,99.99
2018-05-07T04:00:12.706Z,99.99
2018-05-07T04:10:12.192Z,99.99
2018-05-07T04:20:13.857Z,99.99
2018-05-07T04:30:13.716Z,99.99
2018-05-07T04:40:14.395Z,99.99
2018-05-07T04:50:31.563Z,99.99
2018-05-07T05:00:14.485Z,99.99
2018-05-07T05:10:11.824Z,99.99
2018-05-07T05:20:33.208Z,99.99
2018-05-07T05:30:22.194Z,99.99
2018-05-07T05:40:34.774Z,99.99
2018-05-07T05:50:14.343Z,99.99
2018-05-07T06:00:12.704Z,99.99
2018-05-07T06:10:12.681Z,99.99
2018-05-07T06:20:12.773Z,95.7
2018-05-07T06:30:09.479Z,91.39
2018-05-07T06:40:08.881Z,85.68
2018-05-07T06:50:08.770Z,79.3
2018-05-07T07:00:08.809Z,64.79
2018-05-07T07:10:08.810Z,46.71
2018-05-07T07:20:08.898Z,41.08
2018-05-07T07:30:08.739Z,33.93
2018-05-07T07:40:08.754Z,32.81
2018-05-07T07:50:08.837Z,28.53
2018-05-07T08:00:08.763Z,25.07
2018-05-07T08:10:08.808Z,24.86
2018-05-07T08:20:08.796Z,25.57
2018-05-07T08:30:08.798Z,27.47
2018-05-07T08:40:08.788Z,27.42
2018-05-07T08:50:08.776Z,27.82
2018-05-07T09:00:08.784Z,40.94
2018-05-07T09:10:08.782Z,48.37
2018-05-07T09:20:08.801Z,50.79
2018-05-07T09:30:08.929Z,53.33
2018-05-07T09:40:08.833Z,53.2
2018-05-07T09:50:12.393Z,52.23
2018-05-07T10:00:13.220Z,48.69
2018-05-07T10:10:19.106Z,46.08
2018-05-07T10:20:09.693Z,50.13
2018-05-07T10:30:08.821Z,48.59
2018-05-07T10:40:08.839Z,48.39
2018-05-07T10:50:08.811Z,49.29
2018-05-07T11:00:08.816Z,49.39
2018-05-07T11:10:08.854Z,48.35
2018-05-07T11:20:08.842Z,48.83
2018-05-07T11:30:08.845Z,48.64
2018-05-07T11:40:08.834Z,48.74
2018-05-07T11:50:08.827Z,46.25
2018-05-07T12:00:08.833Z,48.86
2018-05-07T12:10:08.788Z,47.69
2018-05-07T12:20:08.835Z,45.4
2018-05-07T12:30:08.855Z,45.49
2018-05-07T12:40:08.858Z,46.39
2018-05-07T12:50:08.913Z,43.27
2018-05-07T13:00:08.829Z,45.22
2018-05-07T13:10:08.820Z,43.68
2018-05-07T13:20:08.850Z,42.92
2018-05-07T13:30:08.851Z,42.34
2018-05-07T13:40:08.836Z,40.81
2018-05-07T13:50:08.857Z,41.1
2018-05-07T14:00:09.869Z,37.03
2018-05-07T14:10:08.986Z,39.36
2018-05-07T14:20:09.906Z,36.16
2018-05-07T14:30:08.964Z,36.06
2018-05-07T14:40:08.968Z,35.59
2018-05-07T14:50:08.895Z,35.98
2018-05-07T15:00:08.863Z,36.85
2018-05-07T15:10:09.748Z,36.85
2018-05-07T15:20:08.893Z,39.67
2018-05-07T15:30:08.869Z,35.88
2018-05-07T15:40:08.863Z,36.18
2018-05-07T15:50:08.904Z,34.81
2018-05-07T16:00:08.904Z,35.88
2018-05-07T16:10:08.918Z,37.43
2018-05-07T16:20:09.110Z,35.78
2018-05-07T16:30:08.938Z,36.36
2018-05-07T16:40:09.091Z,35.57
2018-05-07T16:50:09.016Z,37.32
2018-05-07T17:00:08.903Z,34.41
2018-05-07T17:10:09.048Z,34.3
2018-05-07T17:20:08.904Z,34.28
2018-05-07T17:30:08.932Z,34.97
2018-05-07T17:40:09.160Z,35.15
2018-05-07T17:50:09.330Z,36.88
2018-05-07T18:00:09.269Z,39.49
2018-05-07T18:10:08.992Z,48.18
2018-05-07T18:20:08.906Z,53.16
2018-05-07T18:30:09.116Z,55.93
2018-05-07T18:40:08.956Z,58.03
2018-05-07T18:50:09.133Z,60.83
2018-05-07T19:00:09.351Z,64.53
2018-05-07T19:10:08.912Z,67.97
2018-05-07T19:20:08.886Z,71.22
2018-05-07T19:30:08.910Z,72.59
2018-05-07T19:40:09.370Z,75.63
2018-05-07T19:50:08.983Z,77.76
2018-05-07T20:00:08.945Z,78.88
2018-05-07T20:10:08.946Z,80.19
2018-05-07T20:20:09.013Z,82.54
2018-05-07T20:30:08.954Z,84.04
2018-05-07T20:40:08.970Z,84.81
2018-05-07T20:50:09.120Z,90.04
2018-05-07T21:00:09.263Z,91.28
2018-05-07T21:10:08.955Z,91.24
2018-05-07T21:20:09.519Z,91.72
2018-05-07T21:30:11.032Z,94.74
2018-05-07T21:40:08.921Z,97.66
2018-05-07T21:50:09.415Z,99.99
2018-05-07T22:00:09.789Z,99.99
2018-05-07T22:10:09.507Z,99.99
2018-05-07T22:20:09.024Z,99.99
2018-05-07T22:30:08.973Z,99.99
2018-05-07T22:40:08.895Z,99.99
2018-05-07T22:50:09.209Z,99.99
2018-05-07T23:00:09.557Z,99.99
2018-05-07T23:10:08.923Z,99.99
2018-05-07T23:20:08.987Z,99.99
2018-05-07T23:30:16.754Z,99.99
2018-05-07T23:40:08.914Z,99.99
2018-05-07T23:50:08.904Z,99.99
